Time;durP1;ratioP1;P1;durP2;ratioP2;P2;SDS_P1;SDS_P2;PMS_P1;PMS_P2;Temp;Humidity;BMP_temperature;BMP_pressure;BME280_temperature;BME280_humidity;BME280_pressure;Samples;Min_cycle;Max_cycle;Signal;HPM_P1;HPM_P2
2021/10/29 00:01:56;;;;;;;49.70;31.00;;;;;;;0.54;75.70;98340.59;117320;1177;69205;-65
2021/10/29 00:04:26;;;;;;;50.00;31.00;;;;;;;0.52;76.15;98344.40;117282;1174;59502;-63
2021/10/29 00:06:55;;;;;;;56.70;34.20;;;;;;;0.49;79.80;98341.52;117309;1175;59526;-63
2021/10/29 00:09:25;;;;;;;55.80;31.50;;;;;;;0.48;81.14;98344.64;117353;1175;70623;-62
2021/10/29 00:11:55;;;;;;;54.90;32.20;;;;;;;0.48;80.65;98343.27;117296;1169;68349;-64
2021/10/29 00:14:31;;;;;;;55.70;33.10;;;;;;;0.49;79.84;98339.98;117254;1177;68476;-63
2021/10/29 00:17:01;;;;;;;55.30;32.60;;;;;;;0.48;80.34;98338.11;117347;1177;59517;-62
2021/10/29 00:19:31;;;;;;;32.10;20.30;;;;;;;0.46;80.00;98340.21;117357;1170;59599;-63
2021/10/29 00:22:01;;;;;;;27.80;18.00;;;;;;;0.46;77.40;98337.64;117330;1176;71181;-65
2021/10/29 00:24:30;;;;;;;33.50;21.40;;;;;;;0.46;74.99;98335.41;117365;1175;68781;-64
2021/10/29 00:27:00;;;;;;;;;;;;;;;0.43;74.92;98335.63;117305;1175;68425;-63
2021/10/29 00:29:30;;;;;;;35.40;20.70;;;;;;;0.38;74.39;98329.22;117337;1175;59602;-63
2021/10/29 00:32:00;;;;;;;34.90;23.10;;;;;;;0.33;73.24;98325.02;117256;1175;59458;-62
2021/10/29 00:34:31;;;;;;;26.60;18.50;;;;;;;0.28;73.35;98326.29;117214;1177;71230;-62
2021/10/29 00:37:00;;;;;;;40.00;25.60;;;;;;;0.25;73.13;98326.86;117336;1176;67569;-63
2021/10/29 00:39:30;;;;;;;26.40;17.20;;;;;;;0.24;72.39;98324.66;117209;1176;68952;-62
2021/10/29 00:42:01;;;;;;;28.20;18.10;;;;;;;0.24;72.03;98319.34;117341;1174;59513;-62
2021/10/29 00:44:31;;;;;;;57.10;33.40;;;;;;;0.21;75.16;98319.05;117282;1175;59564;-61
2021/10/29 00:47:01;;;;;;;39.00;27.10;;;;;;;0.13;77.28;98315.39;117232;1175;69640;-63
2021/10/29 00:49:31;;;;;;;;;;;;;;;0.08;76.43;98310.00;117196;1177;67834;-63
2021/10/29 00:52:01;;;;;;;29.20;18.70;;;;;;;0.05;76.19;98306.80;117300;1176;68151;-64
2021/10/29 00:54:31;;;;;;;34.30;23.00;;;;;;;0.03;75.17;98310.09;117223;1175;59535;-64
2021/10/29 00:57:01;;;;;;;30.20;20.70;;;;;;;0.01;74.90;98305.15;117301;1174;59886;-63
2021/10/29 00:59:31;;;;;;;24.40;16.90;;;;;;;0.00;74.50;98302.75;117275;1175;71338;-64
2021/10/29 01:02:01;;;;;;;32.40;21.70;;;;;;;-0.01;74.01;98301.74;117274;1175;67638;-65
2021/10/29 01:04:32;;;;;;;17.50;11.50;;;;;;;-0.03;73.50;98300.74;117230;1175;69276;-65
2021/10/29 01:07:02;;;;;;;19.10;12.80;;;;;;;-0.02;72.75;98298.00;117281;1174;59577;-62
2021/10/29 01:09:32;;;;;;;32.60;19.60;;;;;;;-0.01;71.91;98298.66;117300;1177;59594;-62
2021/10/29 01:12:02;;;;;;;39.40;26.90;;;;;;;0.01;72.76;98301.04;117095;1176;72063;-64
2021/10/29 01:14:32;;;;;;;19.10;12.80;;;;;;;-0.06;76.17;98301.48;117239;1177;68201;-64
2021/10/29 01:17:03;;;;;;;37.80;23.50;;;;;;;-0.08;73.70;98298.95;117146;1175;68304;-63
2021/10/29 01:19:33;;;;;;;28.60;18.70;;;;;;;-0.11;75.77;98301.75;117327;1174;59512;-63
2021/10/29 01:22:03;;;;;;;37.10;25.20;;;;;;;-0.14;75.99;98299.39;117389;1177;59558;-62
2021/10/29 01:24:33;;;;;;;28.80;19.60;;;;;;;-0.17;74.87;98297.55;117349;1177;70536;-64
2021/10/29 01:27:14;;;;;;;39.00;24.10;;;;;;;-0.18;75.72;98296.20;117317;1174;67494;-62
2021/10/29 01:29:45;;;;;;;;;;;;;;;-0.21;75.68;98294.18;117315;1176;68992;-62
2021/10/29 01:32:15;;;;;;;54.60;30.40;;;;;;;-0.22;75.07;98295.91;117286;1174;59529;-62
2021/10/29 01:34:46;;;;;;;51.20;30.00;;;;;;;-0.28;79.67;98297.04;117309;1177;59529;-62
2021/10/29 01:37:16;;;;;;;39.20;24.20;;;;;;;-0.33;79.18;98293.51;117300;1175;71174;-63
2021/10/29 01:39:45;;;;;;;24.30;16.20;;;;;;;-0.37;76.94;98292.21;117323;1176;67462;-63
2021/10/29 01:42:16;;;;;;;16.10;10.50;;;;;;;-0.39;75.55;98289.84;117290;1177;69269;-62
2021/10/29 01:44:47;;;;;;;34.50;21.00;;;;;;;-0.41;74.70;98290.21;117346;1174;59487;-61
2021/10/29 01:47:16;;;;;;;;;;;;;;;-0.43;79.89;98295.39;117204;1176;59551;-64
2021/10/29 01:49:46;;;;;;;49.00;28.10;;;;;;;-0.49;81.93;98302.15;117338;1176;70536;-64
2021/10/29 01:52:16;;;;;;;27.80;16.80;;;;;;;-0.54;81.05;98298.27;117218;1175;68380;-64
2021/10/29 01:54:46;;;;;;;22.80;16.10;;;;;;;-0.57;79.06;98295.90;117260;1174;69224;-63
2021/10/29 01:57:16;;;;;;;20.40;12.40;;;;;;;-0.57;77.51;98296.44;117253;1174;59561;-64
2021/10/29 01:59:45;;;;;;;42.20;25.10;;;;;;;-0.58;78.10;98298.85;117280;1175;59513;-63
2021/10/29 02:02:15;;;;;;;46.20;26.00;;;;;;;-0.58;78.87;98297.46;117289;1176;70346;-62
2021/10/29 02:04:45;;;;;;;27.70;18.70;;;;;;;-0.58;80.68;98297.47;117237;1176;67469;-62
2021/10/29 02:07:16;;;;;;;19.80;11.00;;;;;;;-0.57;79.02;98295.39;117249;1175;68495;-63
2021/10/29 02:09:45;;;;;;;45.10;24.20;;;;;;;-0.56;77.39;98294.86;117306;1177;59525;-61
2021/10/29 02:12:15;;;;;;;39.00;24.20;;;;;;;-0.53;78.45;98295.35;117314;1177;59532;-62
2021/10/29 02:14:45;;;;;;;52.00;28.50;;;;;;;-0.51;76.41;98292.91;117280;1175;70697;-63
2021/10/29 02:17:14;;;;;;;23.60;16.70;;;;;;;-0.51;77.00;98300.28;117294;1175;67449;-62
2021/10/29 02:19:44;;;;;;;28.50;18.60;;;;;;;-0.53;75.77;98302.20;117042;1177;69090;-62
2021/10/29 02:22:14;;;;;;;21.30;14.90;;;;;;;-0.56;75.91;98301.39;117236;1174;59526;-62
2021/10/29 02:24:44;;;;;;;35.70;21.30;;;;;;;-0.59;75.66;98301.60;117305;1174;59540;-64
2021/10/29 02:27:14;;;;;;;42.90;27.70;;;;;;;-0.65;78.51;98296.71;117257;1176;71260;-62
2021/10/29 02:29:44;;;;;;;42.60;25.80;;;;;;;-0.70;79.15;98299.02;117199;1175;67768;-62
2021/10/29 02:32:14;;;;;;;;;;;;;;;-0.75;79.73;98290.86;117365;1175;69259;-62
2021/10/29 02:34:43;;;;;;;40.10;21.60;;;;;;;-0.77;78.22;98290.72;117331;1174;59532;-62
2021/10/29 02:37:14;;;;;;;29.40;19.30;;;;;;;-0.75;77.33;98293.61;117356;1173;59522;-62
2021/10/29 02:39:43;;;;;;;22.40;14.20;;;;;;;-0.76;76.35;98292.07;117244;1177;70624;-62
2021/10/29 02:42:13;;;;;;;23.50;15.50;;;;;;;-0.77;76.37;98293.64;117322;1176;67422;-62
2021/10/29 02:44:44;;;;;;;19.40;12.30;;;;;;;-0.78;76.19;98295.37;117269;1175;69954;-62
2021/10/29 02:47:13;;;;;;;21.10;15.50;;;;;;;-0.79;75.69;98292.29;117229;1176;59577;-63
2021/10/29 02:49:44;;;;;;;21.70;16.20;;;;;;;-0.80;75.35;98295.54;117184;1175;59932;-63
2021/10/29 02:52:14;;;;;;;;;;;;;;;-0.82;77.27;98291.64;117102;1177;71280;-63
2021/10/29 02:54:43;;;;;;;30.90;20.00;;;;;;;-0.83;78.74;98286.71;117238;1176;68456;-62
2021/10/29 02:57:14;;;;;;;22.40;14.70;;;;;;;-0.84;77.48;98292.69;117194;1175;68243;-63
2021/10/29 02:59:45;;;;;;;20.70;14.40;;;;;;;-0.84;75.14;98292.02;117272;1175;59553;-62
2021/10/29 03:02:14;;;;;;;28.40;17.30;;;;;;;-0.81;74.70;98289.41;117330;1175;59529;-63
2021/10/29 03:04:44;;;;;;;27.50;18.30;;;;;;;-0.79;75.40;98285.44;117303;1175;70637;-63
2021/10/29 03:07:14;;;;;;;28.00;15.40;;;;;;;-0.82;75.65;98281.72;117362;1177;67439;-62
2021/10/29 03:09:43;;;;;;;30.50;19.50;;;;;;;-0.84;75.51;98279.52;117268;1177;68371;-62
2021/10/29 03:12:13;;;;;;;34.00;20.20;;;;;;;-0.87;76.22;98282.48;117199;1175;59958;-62
2021/10/29 03:14:43;;;;;;;40.10;21.90;;;;;;;-0.88;75.83;98285.73;117305;1175;59491;-62
2021/10/29 03:17:12;;;;;;;56.90;32.00;;;;;;;-0.91;78.00;98285.09;117323;1175;71119;-64
2021/10/29 03:19:43;;;;;;;39.20;22.00;;;;;;;-0.98;80.14;98278.67;117238;1175;68365;-63
2021/10/29 03:22:13;;;;;;;38.90;22.30;;;;;;;-1.01;78.37;98278.05;117359;1175;69170;-63
2021/10/29 03:24:43;;;;;;;40.60;24.20;;;;;;;-1.05;79.58;98285.27;117308;1176;59577;-62
2021/10/29 03:27:12;;;;;;;25.60;15.50;;;;;;;-1.07;78.42;98288.70;117251;1177;59536;-62
2021/10/29 03:29:42;;;;;;;31.00;17.90;;;;;;;-1.07;77.40;98287.34;117313;1176;71378;-60
2021/10/29 03:32:12;;;;;;;55.40;29.80;;;;;;;-1.09;78.35;98284.30;117289;1175;67597;-62
2021/10/29 03:34:42;;;;;;;42.30;26.30;;;;;;;-1.12;81.93;98287.06;117362;1175;68508;-62
2021/10/29 03:42:46;;;;;;;;;;;;;;;-1.15;78.36;98290.52;117306;1175;71345;-62
2021/10/29 03:45:18;;;;;;;31.30;18.10;;;;;;;-1.14;79.17;98289.49;117186;1175;68474;-64
2021/10/29 03:47:52;;;;;;;26.50;18.50;;;;;;;-1.14;78.33;98287.27;117305;1177;69228;-63
2021/10/29 03:50:27;;;;;;;40.40;24.10;;;;;;;-1.14;77.93;98289.15;117356;1177;59465;-64
2021/10/29 03:55:34;;;;;;;33.20;22.00;;;;;;;-1.15;82.55;98287.11;117232;1175;71110;-64
2021/10/29 03:58:04;;;;;;;42.40;26.20;;;;;;;-1.14;82.21;98289.84;117321;1175;68398;-63
2021/10/29 04:00:35;;;;;;;40.00;25.30;;;;;;;-1.14;83.68;98285.56;117313;1175;68273;-62
2021/10/29 04:03:05;;;;;;;28.30;17.60;;;;;;;-1.15;84.27;98283.86;117282;1177;59523;-61
2021/10/29 04:05:34;;;;;;;45.50;25.70;;;;;;;-1.12;81.94;98282.77;117335;1177;59558;-62
2021/10/29 04:08:04;;;;;;;23.20;13.60;;;;;;;-1.13;82.61;98277.83;117341;1175;71371;-63
2021/10/29 04:10:39;;;;;;;32.70;21.50;;;;;;;-1.13;80.42;98275.77;117346;1174;67547;-63
2021/10/29 04:13:11;;;;;;;26.80;18.60;;;;;;;-1.14;81.08;98275.95;117258;1176;67672;-64
2021/10/29 04:15:41;;;;;;;44.50;26.90;;;;;;;-1.13;82.34;98274.41;117233;1175;59506;-63
2021/10/29 04:18:11;;;;;;;27.50;16.50;;;;;;;-1.13;83.02;98274.76;117315;1176;59593;-62
2021/10/29 04:20:41;;;;;;;44.90;26.70;;;;;;;-1.13;82.30;98277.14;117221;1176;70765;-63
2021/10/29 04:23:10;;;;;;;27.50;17.80;;;;;;;-1.12;83.70;98281.92;117320;1175;68414;-62
2021/10/29 04:25:40;;;;;;;24.90;16.20;;;;;;;-1.11;82.52;98281.58;117185;1176;68457;-63
2021/10/29 04:28:11;;;;;;;22.20;15.40;;;;;;;-1.12;81.19;98278.66;117313;1175;59520;-63
2021/10/29 04:30:44;;;;;;;18.40;12.80;;;;;;;-1.12;80.61;98278.67;117259;1175;59542;-63
2021/10/29 04:33:14;;;;;;;38.90;25.60;;;;;;;-1.14;80.46;98277.17;117215;1175;71598;-62
2021/10/29 04:35:46;;;;;;;34.40;21.90;;;;;;;-1.16;82.10;98280.44;117213;1175;68405;-63
2021/10/29 04:38:16;;;;;;;28.50;18.90;;;;;;;-1.17;82.43;98280.09;117253;1175;68430;-64
2021/10/29 04:40:45;;;;;;;22.80;12.10;;;;;;;-1.17;80.86;98282.84;117283;1176;59558;-64
2021/10/29 04:43:15;;;;;;;15.80;10.10;;;;;;;-1.14;79.82;98282.13;117282;1174;59779;-62
2021/10/29 04:45:44;;;;;;;22.70;12.10;;;;;;;-1.09;79.07;98284.30;117350;1175;72049;-61
2021/10/29 04:48:14;;;;;;;30.00;18.20;;;;;;;-1.05;77.88;98282.36;117331;1177;67887;-65
2021/10/29 04:50:45;;;;;;;25.40;15.90;;;;;;;-1.06;79.48;98287.16;117280;1176;68314;-64
2021/10/29 04:53:14;;;;;;;;;;;;;;;-1.02;78.52;98288.66;117239;1176;59867;-63
2021/10/29 04:55:43;;;;;;;;;;;;;;;-1.04;82.34;98286.44;117315;1174;59560;-63
2021/10/29 04:58:12;;;;;;;;;;;;;;;-1.05;82.92;98285.77;117242;1175;71811;-63
2021/10/29 05:00:42;;;;;;;;;;;;;;;-1.06;81.96;98282.03;117240;1175;67762;-65
2021/10/29 05:03:11;;;;;;;;;;;;;;;-1.05;79.83;98281.34;117257;1176;68452;-63
2021/10/29 05:05:40;;;;;;;;;;;;;;;-1.04;79.99;98278.06;117224;1175;59535;-63
2021/10/29 05:08:09;;;;;;;;;;;;;;;-1.05;81.37;98279.45;117274;1177;59587;-62
2021/10/29 05:10:38;;;;;;;;;;;;;;;-1.05;82.42;98280.98;117312;1177;70561;-64
2021/10/29 05:13:07;;;;;;;;;;;;;;;-0.99;80.29;98279.55;117276;1175;68383;-63
2021/10/29 05:15:37;;;;;;;;;;;;;;;-0.95;80.87;98278.13;117254;1176;68657;-63
2021/10/29 05:18:06;;;;;;;;;;;;;;;-0.96;81.20;98283.45;117246;1176;59472;-63
2021/10/29 05:20:35;;;;;;;;;;;;;;;-0.98;83.48;98281.92;117378;1174;59448;-64
2021/10/29 05:23:04;;;;;;;;;;;;;;;-0.96;82.74;98282.42;117290;1175;70968;-62
2021/10/29 05:25:34;;;;;;;;;;;;;;;-0.94;81.99;98285.13;117310;1176;68374;-62
2021/10/29 05:28:03;;;;;;;;;;;;;;;-0.90;84.22;98287.98;117279;1176;69225;-63
2021/10/29 05:30:32;;;;;;;;;;;;;;;-0.85;82.16;98286.89;117277;1175;59525;-62
2021/10/29 05:33:02;;;;;;;;;;;;;;;-0.81;84.67;98290.27;117376;1176;59542;-64
2021/10/29 05:35:31;;;;;;;;;;;;;;;-0.79;83.84;98292.63;117287;1175;70570;-62
2021/10/29 05:38:01;;;;;;;;;;;;;;;-0.76;83.14;98291.05;117299;1175;68914;-63
2021/10/29 05:40:30;;;;;;;;;;;;;;;-0.71;82.00;98292.86;117256;1176;69795;-63
2021/10/29 05:42:59;;;;;;;;;;;;;;;-0.66;82.21;98286.47;117222;1177;59580;-61
2021/10/29 05:45:28;;;;;;;;;;;;;;;-0.60;81.75;98288.41;117282;1177;59544;-63
2021/10/29 05:48:03;;;;;;;;;;;;;;;-0.52;81.32;98285.40;117323;1175;71922;-63
2021/10/29 05:50:33;;;;;;;;;;;;;;;-0.44;81.33;98284.11;117271;1176;68982;-63
2021/10/29 05:53:05;;;;;;;;;;;;;;;-0.35;81.49;98288.06;117279;1176;68674;-63
2021/10/29 05:55:34;;;;;;;;;;;;;;;-0.25;80.78;98287.91;117286;1176;59926;-63
2021/10/29 05:58:03;;;;;;;;;;;;;;;-0.14;80.12;98290.31;117197;1175;59513;-63
2021/10/29 06:00:32;;;;;;;;;;;;;;;-0.05;80.62;98280.05;117297;1175;71114;-63
2021/10/29 06:03:04;;;;;;;;;;;;;;;0.07;80.52;98283.29;117249;1175;68286;-63
2021/10/29 06:05:33;;;;;;;;;;;;;;;0.18;79.75;98283.08;117310;1176;67642;-62
2021/10/29 06:08:02;;;;;;;;;;;;;;;0.31;79.15;98287.64;117313;1176;59541;-61
2021/10/29 06:10:32;;;;;;;;;;;;;;;0.45;79.57;98291.52;117293;1174;59503;-62
2021/10/29 06:13:01;;;;;;;;;;;;;;;0.61;78.06;98292.77;117365;1176;70709;-61
2021/10/29 06:15:32;;;;;;;;;;;;;;;0.77;76.80;98293.31;117318;1175;69203;-64
2021/10/29 06:18:00;;;;;;;;;;;;;;;0.97;76.11;98295.66;117310;1175;67438;-62
2021/10/29 06:20:31;;;;;;;;;;;;;;;1.33;76.14;98297.65;117336;1175;59532;-63
2021/10/29 06:23:03;;;;;;;;;;;;;;;1.85;76.28;98294.94;117363;1176;59545;-64
2021/10/29 06:25:40;;;;;;;;;;;;;;;2.40;75.81;98298.89;117183;1175;70825;-64
2021/10/29 06:30:47;;;;;;;;;;;;;;;3.78;72.54;98303.54;117296;1176;69006;-65
2021/10/29 06:33:20;;;;;;;;;;;;;;;4.46;67.50;98304.45;117377;1174;59535;-63
2021/10/29 06:35:53;;;;;;;;;;;;;;;5.04;66.47;98306.55;117237;1177;59468;-62
2021/10/29 06:38:23;;;;;;;;;;;;;;;5.72;64.35;98311.93;117314;1175;71363;-64
2021/10/29 06:40:52;;;;;;;;;;;;;;;6.24;64.10;98308.66;117306;1176;68147;-62
2021/10/29 06:48:52;;;;;;;;;;;;;;;8.15;61.45;98310.71;117277;1176;59526;-63
2021/10/29 07:41:30;;;;;;;;;;;;;;;15.22;38.77;98299.42;117224;1176;59471;-63
2021/10/29 07:44:00;;;;;;;;;;;;;;;15.76;39.29;98298.32;117273;1174;59572;-65
2021/10/29 07:46:30;;;;;;;;;;;;;;;16.35;38.03;98296.67;117222;1174;71222;-63
2021/10/29 07:48:59;;;;;;;;;;;;;;;16.92;37.24;98298.14;117291;1174;68238;-64
2021/10/29 07:51:29;;;;;;;;;;;;;;;16.66;34.43;98299.08;117212;1177;68992;-64
2021/10/29 07:53:58;;;;;;;;;;;;;;;16.67;34.95;98296.73;117353;1175;59551;-64
2021/10/29 07:56:28;;;;;;;;;;;;;;;16.49;34.32;98295.59;117235;1175;59591;-65
2021/10/29 07:59:21;;;;;;;;;;;;;;;16.29;34.13;98295.41;117210;1176;72010;-65
2021/10/29 08:01:50;;;;;;;;;;;;;;;16.07;34.21;98296.70;117279;1176;68231;-63
2021/10/29 08:04:21;;;;;;;;;;;;;;;15.17;35.90;98298.70;117323;1176;69190;-64
2021/10/29 08:06:51;;;;;;;;;;;;;;;16.03;36.52;98288.79;117303;1175;59532;-63
2021/10/29 08:09:21;;;;;;;;;;;;;;;16.92;35.46;98285.81;117302;1175;59571;-64
2021/10/29 08:11:50;;;;;;;;;;;;;;;17.80;33.75;98286.33;117305;1174;71924;-67
2021/10/29 08:14:20;;;;;;;;;;;;;;;18.45;31.84;98278.34;117170;1175;67676;-65
2021/10/29 08:16:49;;;;;;;;;;;;;;;18.54;30.96;98277.52;117020;1177;68560;-66
2021/10/29 08:19:29;;;;;;;;;;;;;;;18.75;30.41;98278.92;117199;1175;59576;-63
2021/10/29 08:22:00;;;;;;;;;;;;;;;18.71;30.13;98275.06;117148;1175;59513;-65
2021/10/29 08:24:29;;;;;;;;;;;;;;;19.31;30.14;98271.95;117132;1175;70812;-63
2021/10/29 08:26:59;;;;;;;;;;;;;;;19.84;28.24;98270.05;117250;1177;68236;-66
2021/10/29 08:29:28;;;;;;;;;;;;;;;20.17;27.72;98265.16;117234;1176;69874;-67
2021/10/29 08:31:57;;;;;;;;;;;;;;;20.32;27.63;98266.39;117234;1174;59528;-65
2021/10/29 08:34:27;;;;;;;;;;;;;;;20.28;27.24;98259.70;117326;1176;59513;-64
2021/10/29 08:36:57;;;;;;;;;;;;;;;20.00;27.28;98258.04;117296;1177;71975;-64
2021/10/29 08:39:26;;;;;;;;;;;;;;;20.55;27.68;98253.48;117322;1174;69237;-66
2021/10/29 08:41:57;;;;;;;;;;;;;;;21.23;25.95;98255.61;117355;1174;69244;-65
2021/10/29 08:44:27;;;;;;;;;;;;;;;21.84;25.93;98261.80;117285;1174;59532;-67
2021/10/29 08:47:01;;;;;;;;;;;;;;;21.80;24.83;98256.04;117371;1174;59513;-65
2021/10/29 08:49:31;;;;;;;;;;;;;;;22.44;24.82;98253.64;117326;1175;71231;-65
2021/10/29 08:52:05;;;;;;;;;;;;;;;22.15;23.84;98250.67;117335;1175;68386;-66
2021/10/29 08:54:34;;;;;;;;;;;;;;;21.35;25.11;98253.05;117380;1174;69577;-68
2021/10/29 08:57:03;;;;;;;;;;;;;;;21.47;25.10;98247.45;117350;1175;59548;-66
2021/10/29 08:59:33;;;;;;;;;;;;;;;21.40;24.62;98248.66;117254;1174;59507;-65
2021/10/29 09:32:40;;;;;;;;;;;;;;;28.09;18.62;98216.09;117317;1175;68998;-68
2021/10/29 09:35:09;;;;;;;;;;;;;;;28.60;17.91;98213.11;117245;1176;69317;-66
2021/10/29 09:37:57;;;;;;;;;;;;;;;28.75;17.56;98213.60;117346;1176;59513;-66
2021/10/29 09:41:00;;;;;;;;;;;;;;;29.52;17.96;98213.23;117189;1175;59527;-65
2021/10/29 09:43:58;;;;;;;;;;;;;;;30.04;15.69;98210.86;117219;1176;71790;-65
2021/10/29 09:46:28;;;;;;;;;;;;;;;30.16;15.38;98210.91;117408;1175;67622;-67
2021/10/29 09:49:06;;;;;;;;;;;;;;;30.42;16.31;98210.98;117285;1177;69244;-68
2021/10/29 09:51:47;;;;;;;;;;;;;;;30.23;15.23;98208.61;117336;1176;59516;-66
2021/10/29 09:54:31;;;;;;;;;;;;;;;29.04;16.40;98207.23;117175;1176;59574;-68
2021/10/29 09:57:01;;;;;;;;;;;;;;;28.87;16.33;98206.39;117347;1175;71836;-67
2021/10/29 09:59:35;;;;;;;;;;;;;;;27.04;17.88;98204.05;117316;1177;68355;-68
2021/10/29 10:02:05;;;;;;;;;;;;;;;27.08;18.48;98206.08;117302;1176;69323;-68
2021/10/29 10:04:35;;;;;;;;;;;;;;;28.07;17.73;98195.34;117331;1175;59485;-66
2021/10/29 10:07:04;;;;;;;;;;;;;;;27.79;17.67;98197.02;117259;1176;59499;-65
2021/10/29 10:09:34;;;;;;;;;;;;;;;28.68;17.89;98188.30;117282;1175;71439;-67
2021/10/29 10:12:03;;;;;;;;;;;;;;;29.77;17.38;98185.15;117308;1176;67505;-64
2021/10/29 10:14:32;;;;;;;;;;;;;;;30.74;15.78;98188.19;117197;1176;69628;-67
2021/10/29 10:17:01;;;;;;;;;;;;;;;31.26;15.69;98193.38;117166;1175;59529;-68
2021/10/29 10:19:30;;;;;;;;;;;;;;;31.39;14.73;98188.61;117085;1176;59526;-67
2021/10/29 10:22:00;;;;;;;;;;;;;;;31.27;14.52;98185.98;117239;1175;71783;-69
2021/10/29 10:24:32;;;;;;;;;;;;;;;31.76;14.86;98178.48;117226;1175;67992;-71
2021/10/29 10:44:17;;;;;;;;;;;;;;;32.46;14.01;98149.25;116904;1177;59560;-66
2021/10/29 10:46:52;;;;;;;;;;;;;;;31.23;14.38;98151.46;117191;1177;59532;-66
2021/10/29 10:49:32;;;;;;;;;;;;;;;30.69;15.36;98149.75;117284;1175;71366;-69
2021/10/29 10:54:46;;;;;;;;;;;;;;;31.74;14.57;98142.05;117297;1176;69345;-69
2021/10/29 11:00:29;;;;;;;;;;;;;;;30.56;15.29;98134.76;117337;1175;59535;-64
2021/10/29 11:05:40;;;;;;;;;;;;;;;31.69;14.65;98121.58;117339;1176;68347;-64
2021/10/29 11:11:24;;;;;;;;;;;;;;;33.12;14.52;98115.89;117345;1174;59503;-65
2021/10/29 11:13:57;;;;;;;;;;;;;;;31.58;14.35;98113.38;117343;1176;59530;-64
2021/10/29 11:16:29;;;;;;;;;;;;;;;31.34;15.15;98108.52;117333;1175;70554;-64
2021/10/29 11:19:18;;;;;;;;;;;;;;;31.69;14.60;98108.02;117242;1177;68456;-66
2021/10/29 11:21:47;;;;;;;;;;;;;;;32.23;14.68;98105.67;117289;1176;69699;-64
2021/10/29 11:24:26;;;;;;;;;;;;;;;32.92;14.45;98108.04;117485;1176;59522;-64
2021/10/29 11:27:02;;;;;;;;;;;;;;;32.98;13.88;98107.79;117327;1177;59956;-63
2021/10/29 11:29:31;;;;;;;;;;;;;;;33.05;13.61;98104.92;117260;1175;71734;-65
2021/10/29 11:32:02;;;;;;;;;;;;;;;33.39;13.90;98096.17;117296;1176;69049;-65
2021/10/29 11:34:31;;;;;;;;;;;;;;;32.79;13.69;98095.40;117283;1176;70430;-65
2021/10/29 11:37:01;;;;;;;;;;;;;;;31.34;14.51;98094.55;117341;1175;59501;-63
2021/10/29 11:39:31;;;;;;;;;;;;;;;31.74;14.49;98092.09;117307;1177;59958;-65
2021/10/29 11:42:00;;;;;;;;;;;;;;;32.46;14.49;98086.64;117312;1175;71982;-66
2021/10/29 11:44:28;;;;;;;;;;;;;;;33.14;13.82;98087.81;117296;1175;68993;-63
2021/10/29 11:46:57;;;;;;;;;;;;;;;33.62;13.75;98086.81;117215;1177;69297;-65
2021/10/29 11:49:29;;;;;;;;;;;;;;;34.05;13.19;98083.09;117257;1177;59523;-63
2021/10/29 11:52:01;;;;;;;;;;;;;;;34.28;12.89;98081.83;117264;1177;59519;-64
2021/10/29 11:54:39;;;;;;;;;;;;;;;34.91;13.04;98084.70;117315;1176;71454;-64
2021/10/29 12:00:27;;;;;;;;;;;;;;;35.86;12.30;98072.63;116928;1176;70178;-68
2021/10/29 12:08:46;;;;;;;;;;;;;;;36.16;12.18;98068.92;116962;1177;71368;-64
2021/10/29 12:11:18;;;;;;;;;;;;;;;36.23;12.03;98062.92;117142;1177;67660;-64
2021/10/29 12:13:47;;;;;;;;;;;;;;;36.31;11.80;98064.23;117183;1177;69211;-64
2021/10/29 12:16:22;;;;;;;;;;;;;;;36.22;11.95;98059.16;117261;1176;59934;-65
2021/10/29 12:18:56;;;;;;;;;;;;;;;36.08;11.95;98059.23;117257;1175;59535;-65
2021/10/29 12:21:28;;;;;;;;;;;;;;;36.04;11.94;98054.73;117262;1175;71920;-64
2021/10/29 12:24:00;;;;;;;;;;;;;;;36.15;11.99;98050.57;117288;1175;68533;-63
2021/10/29 12:26:36;;;;;;;;;;;;;;;36.08;11.88;98047.48;117242;1177;69448;-64
2021/10/29 12:29:12;;;;;;;;;;;;;;;35.91;12.18;98044.65;117390;1175;59603;-64
2021/10/29 12:32:24;;;;;;;;;;;;;;;35.86;11.95;98039.93;117318;1175;59493;-65
2021/10/29 12:37:43;;;;;;;;;;;;;;;35.69;12.15;98033.91;117154;1176;67637;-61
2021/10/29 13:03:25;;;;;;;;;;;;;;;34.99;12.75;98009.09;117242;1176;70606;-66
2021/10/29 13:05:55;;;;;;;;;;;;;;;35.06;12.72;98011.89;117285;1175;68401;-64
2021/10/29 13:08:26;;;;;;;;;;;;;;;34.92;12.62;98009.98;117232;1176;69251;-64
2021/10/29 13:10:58;;;;;;;;;;;;;;;34.97;12.78;98009.40;117299;1175;59541;-65
2021/10/29 13:16:15;;;;;;;;;;;;;;;34.88;12.78;98006.50;117092;1177;71395;-64
2021/10/29 13:27:17;;;;;;;;;;;;;;;34.69;12.97;98007.58;117263;1175;59593;-67
2021/10/29 13:35:44;;;;;;;;;;;;;;;34.35;13.31;98003.24;117237;1175;68815;-64
2021/10/29 13:50:13;;;;;;;;;;;;;;;34.31;13.39;97999.02;117240;1175;59568;-64
2021/10/29 13:52:42;;;;;;;;;;;;;;;33.33;14.01;97992.52;117302;1176;59533;-63
2021/10/29 13:55:29;;;;;;;;;;;;;;;33.00;14.23;97993.52;117215;1177;59497;-63
2021/10/29 14:03:47;;;;;;;;;;;;;;;32.13;14.94;97995.25;116986;1177;69201;-66
2021/10/29 14:31:19;;;;;;;;;;;;;;;30.10;16.83;97979.31;117449;1174;69097;-66
2021/10/29 14:33:57;;;;;;;;;;;;;;;29.51;17.31;97974.84;117303;1174;59548;-64
2021/10/29 14:36:31;;;;;;;;;;;;;;;29.08;17.75;97967.91;117324;1174;59493;-64
2021/10/29 14:39:08;;;;;;;;;;;;;;;28.73;18.19;97971.42;117341;1174;72047;-63
2021/10/29 14:41:42;;;;;;;;;;;;;;;28.44;18.38;97971.53;117298;1174;68387;-63
2021/10/29 14:44:22;;;;;;;;;;;;;;;28.11;18.89;97975.05;117346;1174;69620;-66
2021/10/29 15:00:43;;;;;;;;;;;;;;;24.90;22.05;97969.39;117266;1175;59515;-66
2021/10/29 15:05:53;;;;;;;;;;;;;;;23.21;24.50;97967.80;117326;1176;71910;-66
2021/10/29 15:17:06;;;;;;;;;;;;;;;20.70;26.31;97964.34;117383;1174;59462;-66
2021/10/29 15:30:39;;;;;;;;;;;;;;;18.36;32.22;97964.88;117402;1174;59569;-66
2021/10/29 15:47:29;;;;;;;;;;;;;;;16.35;35.00;97975.73;117330;1174;71759;-64
2021/10/29 15:51:52;;;;;;;;;;;;;;;16.13;36.54;97982.36;117325;1174;68674;-63
2021/10/29 15:54:21;;;;;;;;;;;;;;;15.95;36.80;97985.34;117291;1174;59980;-68
2021/10/29 15:56:55;;;;;;;;;;;;;;;15.80;36.79;97986.59;117290;1174;59580;-64
2021/10/29 16:18:34;;;;;;;;;;;;;;;14.29;42.84;97992.91;117370;1174;69494;-65
2021/10/29 16:21:03;;;;;;;;;;;;;;;14.13;42.07;97993.69;117310;1174;59529;-65
2021/10/29 16:23:33;;;;;;;;;;;;;;;13.98;40.33;97995.86;117207;1174;59980;-66
2021/10/29 16:26:09;;;;;;;;;;;;;;;13.84;41.93;98000.96;117282;1174;70492;-62
2021/10/29 16:28:39;;;;;;;;;;;;;;;13.61;44.79;98006.58;117253;1177;68391;-63
2021/10/29 16:31:14;;;;;;;;;;;;;;;13.04;46.52;98007.86;117248;1177;69628;-68
2021/10/29 16:33:49;;;;;;;;;;;;;;;12.65;47.39;98005.09;117106;1177;59966;-68
2021/10/29 16:36:21;;;;;;;;;;;;;;;12.41;48.08;98008.35;117207;1175;59526;-66
2021/10/29 16:38:51;;;;;;;;;;;;;;;12.37;45.29;98006.58;117192;1175;71374;-64
2021/10/29 16:41:22;;;;;;;;;;;;;;;12.31;47.18;98008.88;116874;1177;67653;-63
2021/10/29 16:43:52;;;;;;;;;;;;;;;12.19;49.05;98008.17;117155;1176;69109;-67
2021/10/29 16:46:21;;;;;;;;;;;;;;;12.06;49.59;98009.91;117298;1174;59545;-65
2021/10/29 16:48:50;;;;;;;;;;;;;;;11.89;50.31;98016.89;117273;1175;59540;-65
2021/10/29 16:51:20;;;;;;;;;;;;;;;11.63;51.06;98016.68;117242;1175;71813;-61
2021/10/29 16:53:49;;;;;;;;;;;;;;;11.46;51.30;98014.84;117240;1176;68447;-65
2021/10/29 16:56:17;;;;;;;;;;;;;;;11.40;49.37;98012.82;117296;1175;69054;-64
2021/10/29 16:58:47;;;;;;;;;;;;;;;11.42;48.82;98013.77;117268;1176;59555;-64
2021/10/29 17:01:16;;;;;;;;;;;;;;;11.41;48.14;98014.66;117262;1175;59488;-66
2021/10/29 17:03:45;;;;;;;;;;;;;;;11.43;47.05;98017.71;117335;1176;71744;-65
2021/10/29 17:06:14;;;;;;;;;;;;;;;11.44;46.67;98018.65;117326;1176;68774;-64
2021/10/29 17:08:43;;;;;;;;;;;;;;;11.47;46.39;98021.80;117254;1175;69602;-63
2021/10/29 17:11:13;;;;;;;;;;;;;;;11.46;47.06;98024.13;117177;1176;59525;-64
2021/10/29 17:13:42;;;;;;;;;;;;;;;11.39;47.09;98023.52;117324;1174;59529;-65
2021/10/29 17:16:11;;;;;;;;;;;;;;;11.31;47.97;98029.81;117282;1176;71366;-63